sensor_id;sensor_type;location;lat;lon;timestamp;P1;durP1;ratioP1;P2;durP2;ratioP2
42338;SDS011;27993;45.392;10.918;2023-02-26T00:01:12;81.57;;;40.30;;
42338;SDS011;27993;45.392;10.918;2023-02-26T00:03:47;95.87;;;42.78;;
42338;SDS011;27993;45.392;10.918;2023-02-26T00:06:21;89.90;;;40.67;;
42338;SDS011;27993;45.392;10.918;2023-02-26T00:08:53;91.93;;;39.22;;
42338;SDS011;27993;45.392;10.918;2023-02-26T00:11:24;88.20;;;39.72;;
42338;SDS011;27993;45.392;10.918;2023-02-26T00:13:55;91.87;;;41.37;;
42338;SDS011;27993;45.392;10.918;2023-02-26T00:16:29;81.03;;;37.47;;
42338;SDS011;27993;45.392;10.918;2023-02-26T00:19:03;78.18;;;38.83;;
42338;SDS011;27993;45.392;10.918;2023-02-26T00:21:35;86.10;;;36.45;;
42338;SDS011;27993;45.392;10.918;2023-02-26T00:24:06;80.28;;;38.10;;
42338;SDS011;27993;45.392;10.918;2023-02-26T00:26:37;83.83;;;37.83;;
42338;SDS011;27993;45.392;10.918;2023-02-26T00:29:07;89.50;;;38.90;;
42338;SDS011;27993;45.392;10.918;2023-02-26T00:31:38;86.57;;;38.90;;
42338;SDS011;27993;45.392;10.918;2023-02-26T00:34:10;94.95;;;39.28;;
42338;SDS011;27993;45.392;10.918;2023-02-26T00:36:44;90.35;;;38.85;;
42338;SDS011;27993;45.392;10.918;2023-02-26T00:42:15;89.75;;;36.38;;
42338;SDS011;27993;45.392;10.918;2023-02-26T00:44:46;101.20;;;38.67;;
42338;SDS011;27993;45.392;10.918;2023-02-26T00:50:24;88.43;;;37.33;;
42338;SDS011;27993;45.392;10.918;2023-02-26T00:52:59;79.57;;;36.95;;
42338;SDS011;27993;45.392;10.918;2023-02-26T00:55:49;91.75;;;42.13;;
42338;SDS011;27993;45.392;10.918;2023-02-26T00:58:19;90.60;;;39.43;;
42338;SDS011;27993;45.392;10.918;2023-02-26T01:00:50;79.87;;;37.20;;
42338;SDS011;27993;45.392;10.918;2023-02-26T01:03:20;85.53;;;39.40;;
42338;SDS011;27993;45.392;10.918;2023-02-26T01:05:51;94.90;;;41.17;;
42338;SDS011;27993;45.392;10.918;2023-02-26T01:08:28;81.13;;;35.17;;
42338;SDS011;27993;45.392;10.918;2023-02-26T01:11:04;76.78;;;37.72;;
42338;SDS011;27993;45.392;10.918;2023-02-26T01:13:35;88.33;;;39.77;;
42338;SDS011;27993;45.392;10.918;2023-02-26T01:16:07;84.93;;;38.63;;
42338;SDS011;27993;45.392;10.918;2023-02-26T01:18:42;97.57;;;39.53;;
42338;SDS011;27993;45.392;10.918;2023-02-26T01:21:18;80.40;;;37.53;;
42338;SDS011;27993;45.392;10.918;2023-02-26T01:23:56;81.03;;;38.17;;
42338;SDS011;27993;45.392;10.918;2023-02-26T01:26:30;86.82;;;37.35;;
42338;SDS011;27993;45.392;10.918;2023-02-26T01:29:01;91.20;;;38.00;;
42338;SDS011;27993;45.392;10.918;2023-02-26T01:34:08;82.60;;;38.78;;
42338;SDS011;27993;45.392;10.918;2023-02-26T01:37:03;71.90;;;35.08;;
42338;SDS011;27993;45.392;10.918;2023-02-26T01:42:50;85.47;;;37.92;;
42338;SDS011;27993;45.392;10.918;2023-02-26T01:45:31;76.50;;;35.65;;
42338;SDS011;27993;45.392;10.918;2023-02-26T01:48:05;82.18;;;36.17;;
42338;SDS011;27993;45.392;10.918;2023-02-26T01:50:40;85.25;;;37.55;;
42338;SDS011;27993;45.392;10.918;2023-02-26T01:53:15;75.10;;;33.90;;
42338;SDS011;27993;45.392;10.918;2023-02-26T01:55:59;85.20;;;38.40;;
42338;SDS011;27993;45.392;10.918;2023-02-26T01:58:35;84.62;;;34.63;;
42338;SDS011;27993;45.392;10.918;2023-02-26T02:01:06;83.72;;;34.75;;
42338;SDS011;27993;45.392;10.918;2023-02-26T02:03:37;77.27;;;35.13;;
42338;SDS011;27993;45.392;10.918;2023-02-26T02:06:14;77.95;;;34.92;;
42338;SDS011;27993;45.392;10.918;2023-02-26T02:08:49;65.60;;;33.38;;
42338;SDS011;27993;45.392;10.918;2023-02-26T02:11:20;74.45;;;34.40;;
42338;SDS011;27993;45.392;10.918;2023-02-26T02:14:11;87.57;;;35.67;;
42338;SDS011;27993;45.392;10.918;2023-02-26T02:16:57;83.82;;;34.95;;
42338;SDS011;27993;45.392;10.918;2023-02-26T02:31:21;61.95;;;26.58;;
42338;SDS011;27993;45.392;10.918;2023-02-26T02:34:10;78.95;;;29.15;;
42338;SDS011;27993;45.392;10.918;2023-02-26T02:36:44;71.43;;;29.63;;
42338;SDS011;27993;45.392;10.918;2023-02-26T02:39:33;26.92;;;7.03;;
42338;SDS011;27993;45.392;10.918;2023-02-26T02:42:42;26.75;;;7.32;;
42338;SDS011;27993;45.392;10.918;2023-02-26T02:45:27;14.53;;;5.90;;
42338;SDS011;27993;45.392;10.918;2023-02-26T02:48:23;15.50;;;5.65;;
42338;SDS011;27993;45.392;10.918;2023-02-26T02:50:59;8.15;;;2.95;;
42338;SDS011;27993;45.392;10.918;2023-02-26T02:53:42;13.07;;;4.62;;
42338;SDS011;27993;45.392;10.918;2023-02-26T02:56:19;28.05;;;3.30;;
42338;SDS011;27993;45.392;10.918;2023-02-26T02:59:25;10.98;;;1.90;;
42338;SDS011;27993;45.392;10.918;2023-02-26T03:02:09;4.00;;;1.77;;
42338;SDS011;27993;45.392;10.918;2023-02-26T03:04:41;11.82;;;2.95;;
42338;SDS011;27993;45.392;10.918;2023-02-26T03:07:12;17.52;;;2.17;;
42338;SDS011;27993;45.392;10.918;2023-02-26T03:09:43;8.85;;;1.25;;
42338;SDS011;27993;45.392;10.918;2023-02-26T03:12:14;8.57;;;2.33;;
42338;SDS011;27993;45.392;10.918;2023-02-26T03:14:44;3.60;;;1.43;;
42338;SDS011;27993;45.392;10.918;2023-02-26T03:17:32;4.13;;;1.00;;
42338;SDS011;27993;45.392;10.918;2023-02-26T03:20:23;2.72;;;1.20;;
42338;SDS011;27993;45.392;10.918;2023-02-26T03:23:10;1.62;;;0.80;;
42338;SDS011;27993;45.392;10.918;2023-02-26T03:25:50;8.77;;;1.08;;
42338;SDS011;27993;45.392;10.918;2023-02-26T03:28:37;11.77;;;1.55;;
42338;SDS011;27993;45.392;10.918;2023-02-26T03:31:15;3.30;;;1.08;;
42338;SDS011;27993;45.392;10.918;2023-02-26T03:33:58;2.25;;;1.60;;
42338;SDS011;27993;45.392;10.918;2023-02-26T03:36:47;17.05;;;1.35;;
42338;SDS011;27993;45.392;10.918;2023-02-26T03:39:38;3.85;;;1.00;;
42338;SDS011;27993;45.392;10.918;2023-02-26T03:44:46;1.23;;;0.73;;
42338;SDS011;27993;45.392;10.918;2023-02-26T03:47:22;7.55;;;1.17;;
42338;SDS011;27993;45.392;10.918;2023-02-26T03:52:29;2.83;;;0.55;;
42338;SDS011;27993;45.392;10.918;2023-02-26T03:57:45;5.93;;;0.62;;
42338;SDS011;27993;45.392;10.918;2023-02-26T04:00:17;0.57;;;0.57;;
42338;SDS011;27993;45.392;10.918;2023-02-26T04:05:27;9.93;;;0.95;;
42338;SDS011;27993;45.392;10.918;2023-02-26T04:08:02;9.77;;;0.85;;
42338;SDS011;27993;45.392;10.918;2023-02-26T04:10:40;0.83;;;0.50;;
42338;SDS011;27993;45.392;10.918;2023-02-26T04:13:16;3.10;;;0.70;;
42338;SDS011;27993;45.392;10.918;2023-02-26T04:15:47;1.30;;;0.50;;
42338;SDS011;27993;45.392;10.918;2023-02-26T04:18:18;3.20;;;0.70;;
42338;SDS011;27993;45.392;10.918;2023-02-26T04:20:48;0.73;;;0.40;;
42338;SDS011;27993;45.392;10.918;2023-02-26T04:23:19;0.73;;;0.57;;
42338;SDS011;27993;45.392;10.918;2023-02-26T04:25:49;0.57;;;0.53;;
42338;SDS011;27993;45.392;10.918;2023-02-26T04:28:20;0.57;;;0.50;;
42338;SDS011;27993;45.392;10.918;2023-02-26T04:30:51;1.20;;;0.43;;
42338;SDS011;27993;45.392;10.918;2023-02-26T04:33:21;0.30;;;0.30;;
42338;SDS011;27993;45.392;10.918;2023-02-26T04:35:52;0.80;;;0.50;;
42338;SDS011;27993;45.392;10.918;2023-02-26T04:38:22;11.53;;;0.77;;
42338;SDS011;27993;45.392;10.918;2023-02-26T04:40:53;0.73;;;0.50;;
42338;SDS011;27993;45.392;10.918;2023-02-26T04:43:24;0.98;;;0.52;;
42338;SDS011;27993;45.392;10.918;2023-02-26T04:45:54;0.50;;;0.50;;
42338;SDS011;27993;45.392;10.918;2023-02-26T04:48:25;0.45;;;0.40;;
42338;SDS011;27993;45.392;10.918;2023-02-26T04:50:55;1.15;;;0.50;;
42338;SDS011;27993;45.392;10.918;2023-02-26T04:53:26;0.90;;;0.47;;
42338;SDS011;27993;45.392;10.918;2023-02-26T04:55:56;2.73;;;0.83;;
42338;SDS011;27993;45.392;10.918;2023-02-26T04:58:27;0.30;;;0.30;;
42338;SDS011;27993;45.392;10.918;2023-02-26T05:00:58;0.22;;;0.22;;
42338;SDS011;27993;45.392;10.918;2023-02-26T05:03:28;0.50;;;0.43;;
42338;SDS011;27993;45.392;10.918;2023-02-26T05:05:59;0.30;;;0.30;;
42338;SDS011;27993;45.392;10.918;2023-02-26T05:08:29;1.70;;;0.60;;
42338;SDS011;27993;45.392;10.918;2023-02-26T05:11:00;0.55;;;0.50;;
42338;SDS011;27993;45.392;10.918;2023-02-26T05:13:31;1.80;;;0.47;;
42338;SDS011;27993;45.392;10.918;2023-02-26T05:16:01;3.03;;;0.62;;
42338;SDS011;27993;45.392;10.918;2023-02-26T05:18:32;1.23;;;0.50;;
42338;SDS011;27993;45.392;10.918;2023-02-26T05:21:02;1.17;;;0.50;;
42338;SDS011;27993;45.392;10.918;2023-02-26T05:23:33;0.50;;;0.50;;
42338;SDS011;27993;45.392;10.918;2023-02-26T05:26:04;0.75;;;0.50;;
42338;SDS011;27993;45.392;10.918;2023-02-26T05:28:34;2.50;;;0.40;;
42338;SDS011;27993;45.392;10.918;2023-02-26T05:31:05;0.98;;;0.70;;
42338;SDS011;27993;45.392;10.918;2023-02-26T05:33:36;0.82;;;0.52;;
42338;SDS011;27993;45.392;10.918;2023-02-26T05:36:06;0.50;;;0.40;;
42338;SDS011;27993;45.392;10.918;2023-02-26T05:38:37;0.55;;;0.40;;
42338;SDS011;27993;45.392;10.918;2023-02-26T05:41:08;1.42;;;0.73;;
42338;SDS011;27993;45.392;10.918;2023-02-26T05:43:39;1.50;;;0.57;;
42338;SDS011;27993;45.392;10.918;2023-02-26T05:46:10;0.80;;;0.68;;
42338;SDS011;27993;45.392;10.918;2023-02-26T05:48:41;1.65;;;0.62;;
42338;SDS011;27993;45.392;10.918;2023-02-26T05:51:12;0.55;;;0.55;;
42338;SDS011;27993;45.392;10.918;2023-02-26T05:53:42;0.65;;;0.57;;
42338;SDS011;27993;45.392;10.918;2023-02-26T05:56:14;9.45;;;1.00;;
42338;SDS011;27993;45.392;10.918;2023-02-26T05:58:45;8.48;;;0.80;;
42338;SDS011;27993;45.392;10.918;2023-02-26T06:01:15;0.60;;;0.60;;
42338;SDS011;27993;45.392;10.918;2023-02-26T06:03:46;1.45;;;0.75;;
42338;SDS011;27993;45.392;10.918;2023-02-26T06:06:16;0.50;;;0.40;;
42338;SDS011;27993;45.392;10.918;2023-02-26T06:08:47;0.82;;;0.82;;
42338;SDS011;27993;45.392;10.918;2023-02-26T06:11:18;0.50;;;0.50;;
42338;SDS011;27993;45.392;10.918;2023-02-26T06:13:48;1.80;;;0.62;;
42338;SDS011;27993;45.392;10.918;2023-02-26T06:16:19;0.85;;;0.73;;
42338;SDS011;27993;45.392;10.918;2023-02-26T06:18:50;0.68;;;0.52;;
42338;SDS011;27993;45.392;10.918;2023-02-26T06:21:20;5.68;;;0.70;;
42338;SDS011;27993;45.392;10.918;2023-02-26T06:23:51;7.45;;;2.08;;
42338;SDS011;27993;45.392;10.918;2023-02-26T06:26:22;2.05;;;1.05;;
42338;SDS011;27993;45.392;10.918;2023-02-26T06:28:52;2.05;;;0.95;;
42338;SDS011;27993;45.392;10.918;2023-02-26T06:31:23;1.50;;;0.90;;
42338;SDS011;27993;45.392;10.918;2023-02-26T06:33:53;1.15;;;0.75;;
42338;SDS011;27993;45.392;10.918;2023-02-26T06:36:24;1.92;;;0.80;;
42338;SDS011;27993;45.392;10.918;2023-02-26T06:38:55;0.50;;;0.50;;
42338;SDS011;27993;45.392;10.918;2023-02-26T06:41:25;0.30;;;0.30;;
42338;SDS011;27993;45.392;10.918;2023-02-26T06:43:56;1.87;;;0.65;;
42338;SDS011;27993;45.392;10.918;2023-02-26T06:46:26;1.77;;;0.65;;
42338;SDS011;27993;45.392;10.918;2023-02-26T06:48:57;1.00;;;0.50;;
42338;SDS011;27993;45.392;10.918;2023-02-26T06:51:28;2.17;;;0.60;;
42338;SDS011;27993;45.392;10.918;2023-02-26T06:53:59;1.75;;;1.00;;
42338;SDS011;27993;45.392;10.918;2023-02-26T06:56:30;2.00;;;0.80;;
42338;SDS011;27993;45.392;10.918;2023-02-26T06:59:00;0.98;;;0.52;;
42338;SDS011;27993;45.392;10.918;2023-02-26T07:01:31;2.25;;;0.62;;
42338;SDS011;27993;45.392;10.918;2023-02-26T07:04:02;0.95;;;0.60;;
42338;SDS011;27993;45.392;10.918;2023-02-26T07:06:32;1.70;;;0.80;;
42338;SDS011;27993;45.392;10.918;2023-02-26T07:09:03;1.17;;;0.68;;
42338;SDS011;27993;45.392;10.918;2023-02-26T07:11:33;1.00;;;0.60;;
42338;SDS011;27993;45.392;10.918;2023-02-26T07:14:04;1.20;;;0.90;;
42338;SDS011;27993;45.392;10.918;2023-02-26T07:16:34;0.52;;;0.50;;
42338;SDS011;27993;45.392;10.918;2023-02-26T07:19:05;1.17;;;0.47;;
42338;SDS011;27993;45.392;10.918;2023-02-26T07:21:36;1.30;;;0.60;;
42338;SDS011;27993;45.392;10.918;2023-02-26T07:24:06;37.80;;;14.30;;
42338;SDS011;27993;45.392;10.918;2023-02-26T07:26:37;0.40;;;0.40;;
42338;SDS011;27993;45.392;10.918;2023-02-26T07:29:08;1.55;;;0.62;;
42338;SDS011;27993;45.392;10.918;2023-02-26T07:31:38;0.60;;;0.50;;
42338;SDS011;27993;45.392;10.918;2023-02-26T07:34:09;3.50;;;0.57;;
42338;SDS011;27993;45.392;10.918;2023-02-26T07:36:40;1.25;;;0.60;;
42338;SDS011;27993;45.392;10.918;2023-02-26T07:39:10;4.40;;;0.77;;
42338;SDS011;27993;45.392;10.918;2023-02-26T07:41:41;1.05;;;0.65;;
42338;SDS011;27993;45.392;10.918;2023-02-26T07:44:11;0.73;;;0.40;;
42338;SDS011;27993;45.392;10.918;2023-02-26T07:46:42;1.65;;;0.85;;
42338;SDS011;27993;45.392;10.918;2023-02-26T07:49:13;2.37;;;0.95;;
42338;SDS011;27993;45.392;10.918;2023-02-26T07:51:43;0.52;;;0.43;;
42338;SDS011;27993;45.392;10.918;2023-02-26T07:54:14;5.10;;;0.80;;
42338;SDS011;27993;45.392;10.918;2023-02-26T07:56:45;0.73;;;0.60;;
42338;SDS011;27993;45.392;10.918;2023-02-26T07:59:16;1.12;;;0.70;;
42338;SDS011;27993;45.392;10.918;2023-02-26T08:01:46;0.68;;;0.52;;
42338;SDS011;27993;45.392;10.918;2023-02-26T08:04:17;9.60;;;0.77;;
42338;SDS011;27993;45.392;10.918;2023-02-26T08:06:48;1.75;;;0.90;;
42338;SDS011;27993;45.392;10.918;2023-02-26T08:09:18;2.00;;;1.05;;
42338;SDS011;27993;45.392;10.918;2023-02-26T08:11:50;3.10;;;0.82;;
42338;SDS011;27993;45.392;10.918;2023-02-26T08:14:21;0.40;;;0.40;;
42338;SDS011;27993;45.392;10.918;2023-02-26T08:16:52;1.00;;;0.90;;
42338;SDS011;27993;45.392;10.918;2023-02-26T08:19:22;0.82;;;0.50;;
42338;SDS011;27993;45.392;10.918;2023-02-26T08:21:53;0.47;;;0.45;;
42338;SDS011;27993;45.392;10.918;2023-02-26T08:24:24;1.20;;;0.47;;
42338;SDS011;27993;45.392;10.918;2023-02-26T08:26:55;0.65;;;0.50;;
42338;SDS011;27993;45.392;10.918;2023-02-26T08:29:26;0.55;;;0.40;;
42338;SDS011;27993;45.392;10.918;2023-02-26T08:31:56;1.95;;;0.47;;
42338;SDS011;27993;45.392;10.918;2023-02-26T08:34:27;0.33;;;0.33;;
42338;SDS011;27993;45.392;10.918;2023-02-26T08:36:57;1.12;;;0.77;;
42338;SDS011;27993;45.392;10.918;2023-02-26T08:39:28;6.12;;;0.50;;
42338;SDS011;27993;45.392;10.918;2023-02-26T08:42:02;3.70;;;0.22;;
42338;SDS011;27993;45.392;10.918;2023-02-26T08:44:32;0.98;;;0.43;;
42338;SDS011;27993;45.392;10.918;2023-02-26T08:47:03;0.52;;;0.40;;
42338;SDS011;27993;45.392;10.918;2023-02-26T08:49:33;0.80;;;0.60;;
42338;SDS011;27993;45.392;10.918;2023-02-26T08:52:04;0.68;;;0.52;;
42338;SDS011;27993;45.392;10.918;2023-02-26T08:54:35;1.23;;;0.68;;
42338;SDS011;27993;45.392;10.918;2023-02-26T08:57:05;1.58;;;0.75;;
42338;SDS011;27993;45.392;10.918;2023-02-26T08:59:36;2.03;;;0.93;;
42338;SDS011;27993;45.392;10.918;2023-02-26T09:02:08;1.75;;;0.52;;
42338;SDS011;27993;45.392;10.918;2023-02-26T09:04:40;5.00;;;1.10;;
42338;SDS011;27993;45.392;10.918;2023-02-26T09:07:10;0.43;;;0.40;;
42338;SDS011;27993;45.392;10.918;2023-02-26T09:09:41;6.03;;;0.60;;
42338;SDS011;27993;45.392;10.918;2023-02-26T09:12:11;2.87;;;0.60;;
42338;SDS011;27993;45.392;10.918;2023-02-26T09:14:42;0.80;;;0.60;;
42338;SDS011;27993;45.392;10.918;2023-02-26T09:17:12;0.40;;;0.40;;
42338;SDS011;27993;45.392;10.918;2023-02-26T09:19:43;0.52;;;0.30;;
42338;SDS011;27993;45.392;10.918;2023-02-26T09:22:14;0.88;;;0.40;;
42338;SDS011;27993;45.392;10.918;2023-02-26T09:24:44;1.05;;;0.50;;
42338;SDS011;27993;45.392;10.918;2023-02-26T09:27:15;0.70;;;0.50;;
42338;SDS011;27993;45.392;10.918;2023-02-26T09:29:46;3.93;;;0.63;;
42338;SDS011;27993;45.392;10.918;2023-02-26T09:32:17;0.87;;;0.47;;
42338;SDS011;27993;45.392;10.918;2023-02-26T09:34:47;0.57;;;0.50;;
42338;SDS011;27993;45.392;10.918;2023-02-26T09:37:18;0.50;;;0.33;;
42338;SDS011;27993;45.392;10.918;2023-02-26T09:39:48;4.60;;;1.67;;
42338;SDS011;27993;45.392;10.918;2023-02-26T09:42:24;0.67;;;0.43;;
42338;SDS011;27993;45.392;10.918;2023-02-26T09:45:21;3.50;;;1.00;;
42338;SDS011;27993;45.392;10.918;2023-02-26T09:47:56;1.62;;;1.02;;
42338;SDS011;27993;45.392;10.918;2023-02-26T09:50:41;1.42;;;0.60;;
42338;SDS011;27993;45.392;10.918;2023-02-26T09:55:55;0.40;;;0.40;;
42338;SDS011;27993;45.392;10.918;2023-02-26T09:58:33;3.15;;;1.10;;
42338;SDS011;27993;45.392;10.918;2023-02-26T10:10:02;1.10;;;0.70;;
42338;SDS011;27993;45.392;10.918;2023-02-26T10:12:43;1.55;;;0.82;;
42338;SDS011;27993;45.392;10.918;2023-02-26T10:18:25;2.30;;;0.85;;
42338;SDS011;27993;45.392;10.918;2023-02-26T10:21:06;1.98;;;0.90;;
42338;SDS011;27993;45.392;10.918;2023-02-26T10:23:50;0.95;;;0.60;;
42338;SDS011;27993;45.392;10.918;2023-02-26T10:26:31;1.60;;;1.05;;
42338;SDS011;27993;45.392;10.918;2023-02-26T10:32:33;1.15;;;0.73;;
42338;SDS011;27993;45.392;10.918;2023-02-26T10:35:15;1.40;;;0.80;;
42338;SDS011;27993;45.392;10.918;2023-02-26T10:37:52;1.45;;;0.75;;
42338;SDS011;27993;45.392;10.918;2023-02-26T10:43:15;2.00;;;0.63;;
42338;SDS011;27993;45.392;10.918;2023-02-26T10:51:33;1.75;;;0.98;;
42338;SDS011;27993;45.392;10.918;2023-02-26T10:56:50;1.23;;;0.80;;
42338;SDS011;27993;45.392;10.918;2023-02-26T10:59:20;1.07;;;0.70;;
42338;SDS011;27993;45.392;10.918;2023-02-26T11:01:51;1.57;;;0.83;;
42338;SDS011;27993;45.392;10.918;2023-02-26T11:04:25;1.12;;;0.65;;
42338;SDS011;27993;45.392;10.918;2023-02-26T11:07:00;1.98;;;1.35;;
42338;SDS011;27993;45.392;10.918;2023-02-26T11:09:38;5.15;;;1.08;;
42338;SDS011;27993;45.392;10.918;2023-02-26T11:12:14;2.60;;;1.33;;
42338;SDS011;27993;45.392;10.918;2023-02-26T11:14:46;2.33;;;0.90;;
42338;SDS011;27993;45.392;10.918;2023-02-26T11:17:21;1.75;;;0.75;;
42338;SDS011;27993;45.392;10.918;2023-02-26T11:20:01;2.40;;;1.08;;
42338;SDS011;27993;45.392;10.918;2023-02-26T11:22:37;1.27;;;0.62;;
42338;SDS011;27993;45.392;10.918;2023-02-26T11:25:12;3.23;;;0.70;;
42338;SDS011;27993;45.392;10.918;2023-02-26T11:27:46;2.05;;;1.20;;
42338;SDS011;27993;45.392;10.918;2023-02-26T11:30:20;2.78;;;1.58;;
42338;SDS011;27993;45.392;10.918;2023-02-26T11:32:56;5.40;;;2.08;;
42338;SDS011;27993;45.392;10.918;2023-02-26T11:35:27;0.75;;;0.62;;
42338;SDS011;27993;45.392;10.918;2023-02-26T11:37:59;1.67;;;0.90;;
42338;SDS011;27993;45.392;10.918;2023-02-26T11:40:34;4.25;;;2.08;;
42338;SDS011;27993;45.392;10.918;2023-02-26T11:43:11;6.12;;;1.25;;
42338;SDS011;27993;45.392;10.918;2023-02-26T11:45:47;1.30;;;0.85;;
42338;SDS011;27993;45.392;10.918;2023-02-26T11:48:24;1.12;;;0.60;;
42338;SDS011;27993;45.392;10.918;2023-02-26T11:50:59;3.78;;;1.73;;
42338;SDS011;27993;45.392;10.918;2023-02-26T11:53:36;1.45;;;0.90;;
42338;SDS011;27993;45.392;10.918;2023-02-26T11:56:12;4.22;;;1.08;;
42338;SDS011;27993;45.392;10.918;2023-02-26T11:58:49;2.53;;;1.20;;
42338;SDS011;27993;45.392;10.918;2023-02-26T12:01:22;2.12;;;1.17;;
42338;SDS011;27993;45.392;10.918;2023-02-26T12:03:57;2.78;;;0.90;;
42338;SDS011;27993;45.392;10.918;2023-02-26T12:06:30;2.75;;;1.00;;
42338;SDS011;27993;45.392;10.918;2023-02-26T12:09:01;3.23;;;1.50;;
42338;SDS011;27993;45.392;10.918;2023-02-26T12:50:54;3.55;;;1.60;;
42338;SDS011;27993;45.392;10.918;2023-02-26T12:53:53;2.20;;;1.00;;
42338;SDS011;27993;45.392;10.918;2023-02-26T12:56:44;2.45;;;1.20;;
42338;SDS011;27993;45.392;10.918;2023-02-26T13:10:56;4.07;;;1.12;;
42338;SDS011;27993;45.392;10.918;2023-02-26T13:22:05;3.70;;;1.17;;
42338;SDS011;27993;45.392;10.918;2023-02-26T13:27:33;4.68;;;1.90;;
42338;SDS011;27993;45.392;10.918;2023-02-26T13:30:26;10.63;;;1.65;;
42338;SDS011;27993;45.392;10.918;2023-02-26T13:33:29;2.30;;;1.40;;
42338;SDS011;27993;45.392;10.918;2023-02-26T13:36:01;5.15;;;1.67;;
42338;SDS011;27993;45.392;10.918;2023-02-26T13:41:26;7.47;;;3.15;;
42338;SDS011;27993;45.392;10.918;2023-02-26T13:47:20;30.37;;;7.90;;
42338;SDS011;27993;45.392;10.918;2023-02-26T13:52:52;3.45;;;2.00;;
42338;SDS011;27993;45.392;10.918;2023-02-26T13:58:38;1.20;;;0.85;;
42338;SDS011;27993;45.392;10.918;2023-02-26T14:06:52;1.33;;;1.00;;
42338;SDS011;27993;45.392;10.918;2023-02-26T14:09:29;1.58;;;0.90;;
42338;SDS011;27993;45.392;10.918;2023-02-26T14:12:22;5.00;;;0.98;;
42338;SDS011;27993;45.392;10.918;2023-02-26T14:17:49;2.60;;;1.15;;
42338;SDS011;27993;45.392;10.918;2023-02-26T14:20:28;4.25;;;1.70;;
42338;SDS011;27993;45.392;10.918;2023-02-26T14:25:39;0.45;;;0.45;;
42338;SDS011;27993;45.392;10.918;2023-02-26T14:28:32;3.25;;;1.10;;
42338;SDS011;27993;45.392;10.918;2023-02-26T14:31:19;8.25;;;1.12;;
42338;SDS011;27993;45.392;10.918;2023-02-26T14:39:37;0.62;;;0.60;;
42338;SDS011;27993;45.392;10.918;2023-02-26T14:42:18;0.45;;;0.45;;
42338;SDS011;27993;45.392;10.918;2023-02-26T14:45:36;2.72;;;0.73;;
42338;SDS011;27993;45.392;10.918;2023-02-26T14:48:02;0.82;;;0.60;;
42338;SDS011;27993;45.392;10.918;2023-02-26T14:50:48;0.68;;;0.45;;
42338;SDS011;27993;45.392;10.918;2023-02-26T14:54:05;2.28;;;0.77;;
42338;SDS011;27993;45.392;10.918;2023-02-26T15:10:39;3.08;;;1.00;;
42338;SDS011;27993;45.392;10.918;2023-02-26T15:13:27;0.85;;;0.70;;
42338;SDS011;27993;45.392;10.918;2023-02-26T15:24:43;1.65;;;0.93;;
42338;SDS011;27993;45.392;10.918;2023-02-26T15:27:15;1.60;;;0.93;;
42338;SDS011;27993;45.392;10.918;2023-02-26T15:29:49;2.85;;;0.77;;
42338;SDS011;27993;45.392;10.918;2023-02-26T15:34:58;3.22;;;0.93;;
42338;SDS011;27993;45.392;10.918;2023-02-26T15:37:30;1.73;;;0.62;;
42338;SDS011;27993;45.392;10.918;2023-02-26T15:40:03;1.10;;;0.68;;
42338;SDS011;27993;45.392;10.918;2023-02-26T15:42:36;1.17;;;0.70;;
42338;SDS011;27993;45.392;10.918;2023-02-26T15:45:11;2.10;;;1.00;;
42338;SDS011;27993;45.392;10.918;2023-02-26T15:47:48;4.75;;;1.40;;
42338;SDS011;27993;45.392;10.918;2023-02-26T15:50:27;1.92;;;0.68;;
42338;SDS011;27993;45.392;10.918;2023-02-26T15:53:02;0.80;;;0.50;;
42338;SDS011;27993;45.392;10.918;2023-02-26T15:55:35;1.55;;;0.65;;
42338;SDS011;27993;45.392;10.918;2023-02-26T15:58:12;6.12;;;1.15;;
42338;SDS011;27993;45.392;10.918;2023-02-26T16:00:52;0.65;;;0.50;;
42338;SDS011;27993;45.392;10.918;2023-02-26T16:03:25;1.58;;;0.70;;
42338;SDS011;27993;45.392;10.918;2023-02-26T16:05:56;1.08;;;0.73;;
42338;SDS011;27993;45.392;10.918;2023-02-26T16:08:28;0.77;;;0.47;;
42338;SDS011;27993;45.392;10.918;2023-02-26T16:10:59;0.98;;;0.65;;
42338;SDS011;27993;45.392;10.918;2023-02-26T16:13:32;1.15;;;0.70;;
42338;SDS011;27993;45.392;10.918;2023-02-26T16:16:08;1.30;;;0.82;;
42338;SDS011;27993;45.392;10.918;2023-02-26T16:18:46;2.05;;;0.60;;
42338;SDS011;27993;45.392;10.918;2023-02-26T16:21:36;1.63;;;1.00;;
42338;SDS011;27993;45.392;10.918;2023-02-26T16:24:11;10.50;;;0.93;;
42338;SDS011;27993;45.392;10.918;2023-02-26T16:26:52;3.50;;;1.33;;
42338;SDS011;27993;45.392;10.918;2023-02-26T16:29:27;1.60;;;1.15;;
42338;SDS011;27993;45.392;10.918;2023-02-26T16:32:00;1.73;;;1.02;;
42338;SDS011;27993;45.392;10.918;2023-02-26T16:34:34;1.98;;;1.00;;
42338;SDS011;27993;45.392;10.918;2023-02-26T16:37:24;1.65;;;1.05;;
42338;SDS011;27993;45.392;10.918;2023-02-26T16:48:13;1.98;;;1.42;;
42338;SDS011;27993;45.392;10.918;2023-02-26T16:53:36;1.70;;;1.00;;
42338;SDS011;27993;45.392;10.918;2023-02-26T16:56:17;3.05;;;1.60;;
42338;SDS011;27993;45.392;10.918;2023-02-26T17:04:42;2.67;;;1.30;;
42338;SDS011;27993;45.392;10.918;2023-02-26T17:07:19;2.75;;;1.30;;
42338;SDS011;27993;45.392;10.918;2023-02-26T17:10:12;13.18;;;5.22;;
42338;SDS011;27993;45.392;10.918;2023-02-26T17:13:16;30.20;;;8.50;;
42338;SDS011;27993;45.392;10.918;2023-02-26T17:15:49;6.75;;;3.45;;
42338;SDS011;27993;45.392;10.918;2023-02-26T17:18:23;3.20;;;1.40;;
42338;SDS011;27993;45.392;10.918;2023-02-26T17:20:54;7.45;;;2.87;;
42338;SDS011;27993;45.392;10.918;2023-02-26T17:23:25;7.30;;;2.87;;
42338;SDS011;27993;45.392;10.918;2023-02-26T17:26:00;2.35;;;1.58;;
42338;SDS011;27993;45.392;10.918;2023-02-26T17:28:32;12.70;;;3.00;;
42338;SDS011;27993;45.392;10.918;2023-02-26T17:31:05;6.20;;;3.35;;
42338;SDS011;27993;45.392;10.918;2023-02-26T17:33:37;5.82;;;2.55;;
42338;SDS011;27993;45.392;10.918;2023-02-26T17:36:12;5.80;;;2.33;;
42338;SDS011;27993;45.392;10.918;2023-02-26T17:38:45;4.70;;;2.83;;
42338;SDS011;27993;45.392;10.918;2023-02-26T17:41:17;6.28;;;2.50;;
42338;SDS011;27993;45.392;10.918;2023-02-26T17:43:48;7.45;;;2.67;;
42338;SDS011;27993;45.392;10.918;2023-02-26T17:46:18;5.97;;;2.62;;
42338;SDS011;27993;45.392;10.918;2023-02-26T17:48:49;4.37;;;2.37;;
42338;SDS011;27993;45.392;10.918;2023-02-26T17:51:20;4.32;;;2.37;;
42338;SDS011;27993;45.392;10.918;2023-02-26T17:53:50;7.18;;;1.90;;
42338;SDS011;27993;45.392;10.918;2023-02-26T17:56:28;6.05;;;3.00;;
42338;SDS011;27993;45.392;10.918;2023-02-26T17:59:01;1.77;;;1.37;;
42338;SDS011;27993;45.392;10.918;2023-02-26T18:01:34;3.83;;;1.90;;
42338;SDS011;27993;45.392;10.918;2023-02-26T18:04:04;7.15;;;2.78;;
42338;SDS011;27993;45.392;10.918;2023-02-26T18:06:35;3.37;;;2.00;;
42338;SDS011;27993;45.392;10.918;2023-02-26T18:09:06;6.20;;;2.47;;
42338;SDS011;27993;45.392;10.918;2023-02-26T18:11:40;5.15;;;1.75;;
42338;SDS011;27993;45.392;10.918;2023-02-26T18:14:11;2.17;;;1.37;;
42338;SDS011;27993;45.392;10.918;2023-02-26T18:16:41;3.37;;;1.45;;
42338;SDS011;27993;45.392;10.918;2023-02-26T18:19:14;3.20;;;1.40;;
42338;SDS011;27993;45.392;10.918;2023-02-26T18:21:44;5.50;;;2.22;;
42338;SDS011;27993;45.392;10.918;2023-02-26T18:24:15;4.82;;;2.83;;
42338;SDS011;27993;45.392;10.918;2023-02-26T18:26:46;4.93;;;2.47;;
42338;SDS011;27993;45.392;10.918;2023-02-26T18:29:16;3.00;;;1.60;;
42338;SDS011;27993;45.392;10.918;2023-02-26T18:31:47;3.92;;;1.40;;